今日のアクセス数

    岡山グライダークラブ活動状況掲示板

岡山グライダークラブ
岡山市浦安南町639-1 岡南飛行場
 使用機:シャイベ式 SF25C型 ファルケ   JA2330
      ヴァレンティン式17E型 タイフーン  JA2342
 練習日:毎日曜日  クラブルーム:電話 086-265-1810
この掲示板は岡山グライダークラブの活動状況をお知らせする掲示板です。
!!!この掲示板は投稿規制をしています。!!!
クラブ関連各種情報は 岡山グライダークラブクラブルーム      を       .
  ブリーフイング情報は  岡山グライダークラブブリーフィングルーム  をご覧下さい。 .
※写真はクリックすると拡大して見ることが出来ます。
岡南飛行場へのアクセス等は 岡南飛行場管理事務所 をご覧ください。
クラブの ホームページ ができました。

!!!最近のコロナ感染拡大に伴い、当面の間、見学者等の受入を中止しております。再開まで今しばらくお待ちください!!!

ページ 1 (1〜10)ホームページへ戻る

04月11日 
by OGC at 2021/4/12(月) 00:55:47 No.20210412005315 コメント】  削除 引用
1024 x 768 x 79,896バイト
No.1

04月11日
本日の参加者
  会員      18名
  その他      4名


@本日の様子






METAR
RJBK 110000Z VRB02KT 30KM FEW030CU 11/03 Q1034 A3054
RJOB 110000Z VRB02KT CAVOK 11/00 Q1033
RJOT 110000Z 03005KT 350V110 CAVOK 11/05 Q1033
RJOA 110000Z VRB03KT CAVOK 11/02 Q1033
TAF
RJOB 102306Z 1100/1206 12005KT 9999 FEW030
RJOT 102305Z 1100/1206 05008KT 9999 FEW030
RJOA 102305Z 1100/1206 14006KT 9999 FEW030

本日は久々の快晴に恵まれ、会員18名、ゲスト4名が集まりました。
久々のフライトなので、訓練生はTGL等、ライセンサーはタイフーン整備後
のテストフライトや特定技能審査等で、操縦感覚を思い出していました。

最近のコロナ感染拡大に伴い、当面の間、見学者の受入を自粛することとしま
した。再開までの間、しばらくお待ちください。


解散    18:10

1番機  10:25離陸 撤収機  17:50着陸 

SF25C JA2330 ファルケ     12Flt.4h50min  
17E   JA2342 タイフーン    04Flt.1h05min  
合計                    16Flt.5h55min

 HDD「データ復元」ino    データ復旧、MAC、料金、ino

04月04日
by OGC at 2021/4/4(日) 20:48:26 No.20210404204538 コメント】  削除 引用
1024 x 768 x 62,034バイト
No.1

04月04日
本日の参加者
  会員      10名
  その他      0名


@本日の様子






METAR
RJBK 040000Z 07006KT 15KM -SHRA FEW0020CU BKN050SC 17/14 Q1010 A2984
RJOB 040000Z 06008KT 9999 FEW010 BKN050 15/14 Q1010
RJOT 040000Z 36004KT 330V040 9999 FEW020 SCT070 BKN160 18/14 Q1010
RJOA 040000Z VRB01KT 7000 R10/1300VP1800D SHRA BCFG FEW000 BKN030 14/13 Q1010
TAF
RJOB 032308Z 0400/0506 11006KT 4000 -SHRA BR FEW001 BKN008 BKN015
     TEMPO 0400/0403 1500 SHRA BR BCFG FEW000 SCT003 BKN005
     BECMG 0402/0404 23008KT
     TEMPO 0403/0408 2000 SHRA BR BCFG FEW000 BKN005 BKN010
     BECMG 0407/0409 36010KT
     BECMG 0409/0411 9999 NSW FEW015 SCT020 BKN035
RJOT 032312Z 0400/0506 15004KT 6000 -SHRA FEW001 SCT008 BKN015
     TEMPO 0401/0406 4000 SHRA BR FEW001 BKN008 BKN015
     BECMG 0406/0408 27007KT
     TEMPO 0406/0409 2000 TSRA BR FEW001 BKN005 BKN012 FEW020CB
     TEMPO 0409/0412 2000 SHRA BR FEW001 BKN005 BKN012
     BECMG 0500/0503 36008KT
RJOA 032310Z 0400/0506 16004KT 3000 -SHRA BR BCFG FEW000 BKN008 BKN012
     TEMPO 0400/0406 1500 SHRA BR BCFG FEW000 SCT003 BKN005
     BECMG 0401/0403 23006KT
     BECMG 0406/0408 33016KT 9999 NSW FEW015 BKN025
     BECMG 0415/0418 01010KT


本日は、試運転後のブリーフィング中に雨が降り出し、一日中、雨が予想され、「晴れの国、岡山」の神通力に期待していましたが、フライトできそうな状況には至りませんでした。
格納庫では、またまた、先週に引き続き、普段できていなかった整備等を行いました。


解散    16:30

本日のフライトはありません

03月28日
by OGC at 2021/3/28(日) 21:39:02 No.20210328213100 コメント】  削除 引用
1024 x 768 x 132,107バイト
No.1

03月28日
本日の参加者
  会員      12名
  その他      0名


@本日の様子






METAR
RJBK 280000Z 01005KT 340V060 25KM FEW035CU SCT060SC BKN100AC 14/12 Q1009 A2980
RJOB 280000Z 06012KT 9999 -RA FEW005 BKN045 BKN070 12/11 Q1009
RJOT 280000Z 16003KT 110V290 9999 FEW002 SCT090 BKN120 13/13 Q1008
RJOA 280000Z 08010KT 5000 SHRA BR FEW003 SCT030 BKN035 11/11 Q1008
TAF
RJOB 272307Z 2800/2906 12006KT 7000 -SHRA FEW003 SCT008 BKN015
     TEMPO 2800/2805 4000 -SHRA BR BCFG FEW000 SCT005 BKN008
     TEMPO 2805/2809 2000 SHRA BR BCFG FEW000 SCT005 BKN008
     BECMG 2809/2811 26005KT
     TEMPO 2809/2818 4000 BR BCFG FEW000 SCT005 BKN008
RJOT 272310Z 2800/2906 03004KT 8000 -SHRA FEW002 SCT015 BKN040
     TEMPO 2804/2807 4000 SHRA BR
     BECMG 2807/2809 25008KT
     TEMPO 2807/2810 2000 -SHRA BR FEW001 SCT003 BKN005
RJOA 272306Z 2800/2906 06004KT 3000 -SHRA BR BCFG FEW000 BKN008 BKN015
     TEMPO 2800/2806 1500 SHRA BR BCFG FEW000 SCT003 BKN005
     BECMG 2803/2805 26006KT
     BECMG 2806/2808 9999 NSW FEW008 SCT025


本日は、一日中、雨が予想されていましたので、フライトは断念しましたが、
想像していた大雨ではなく、小雨、曇りの繰り返しで「晴れの国、岡山」の
威力が発揮されていました。
格納庫では、先週に引き続き、普段できていなかった整備等を行い、早めに解散しました。


解散    15:30

本日のフライトはありません。
03月21日
by OGC at 2021/3/21(日) 19:44:48 No.20210321194257 コメント】  削除 引用
1024 x 768 x 58,661バイト
No.1

03月21日
本日の参加者
  会員      10名
  その他      0名


@本日の様子






METAR
RJBK 210000Z 25006KT 4500 -SHRA BR FEW005ST SCT010CU BKN015CU 15/15 Q1005 A2969
RJOB 210000Z 25002KT 2000 -SHRA BR BCFG FEW000 SCT002 BKN005 15/15 Q1005
RJOT 210000Z 27008KT 0200 R26/0500V1400D FG VCSH FEW000 SCT001 BKN002 14/14 Q1005
RJOA 210000Z 31005KT 250V340 1800 R10/1200VP1800U -SHRA BCFG BR FEW000 SCT010 BKN015 13/13 Q1006
TAF
RJOB 202308Z 2100/2206 06004KT 3000 -SHRA BR FEW001 BKN008 BKN015
     BECMG 2100/2102 30006KT
     TEMPO 2100/2102 0700 -SHRA FG FEW000 BKN003 BKN005
     TEMPO 2102/2105 1500 -SHRA BR BCFG FEW000 SCT003 BKN005
     BECMG 2105/2107 9999 NSW FEW025 BKN045
RJOT 202308Z 2100/2206 26009KT 3000 -SHRA BR FEW001 SCT005 BKN008
     TEMPO 2100/2102 0700 -SHRA FG FEW000 SCT001 BKN003
     TEMPO 2102/2104 1200 -SHRA BR BCFG FEW000 SCT003 BKN005
     BECMG 2104/2106 9999 NSW FEW025 SCT035 BKN050
RJOA 202306Z 2100/2206 30007KT 9000 -SHRA FEW010 SCT015 BKN030
     TEMPO 2100/2103 3000 SHRA BR FEW001 SCT005 BKN008


本日は、「晴れの岡南飛行場」にしては珍しく、霧と雨と雲底の低さからフライトは断念しました。
格納庫では、先週に引き続き、普段できていなかった整備等を行い、早めに解散しました。


解散    15:30

本日のフライトはありません。
03月14日
by OGC at 2021/3/15(月) 07:03:45 No.20210315065915 コメント】  削除 引用
1024 x 768 x 63,683バイト
No.1

03月14日
本日の参加者
  会員      13名
  その他      0名


@本日の様子






METAR
RJOB 140000Z 26005KT 230V300 9999 FEW020 08/02 Q1018
RJOT 140000Z 27012KT 9999 FEW025 09/04 Q1019
RJOA 140000Z 29003KT 9999 FEW025 08/01 Q1019
TAF
3月10日から「過去のTAF」サイト停止中。m(_ _)m

本日は、ホンダジェットに滑走路を占有されていたので、フライトはありませんでした。
昨日、雨で本日、晴れでサーマルが期待できる天候でした。残念!
格納庫では、この合間に普段できていなかった整備やパソコンの設定を行いました。


解散    17:30

本日のフライトはありません。
03月07日
by OGC at 2021/3/7(日) 21:57:49 No.20210307214541 コメント】  削除 引用
1024 x 768 x 66,108バイト
No.1

03月07日
本日の参加者
  会員      18名
  その他      0名


@本日の様子






METAR
RJBK 070000Z 02004KT 330V070 30KM FEW030CU SCT150AC BKN/// 06/M01 Q1028 A3038
RJOB 070000Z 05009KT 9999 FEW020 SCT/// 05/M01 Q1027
RJOT 070000Z 08007KT 040V130 9999 FEW020 BKN025 05/M00 Q1027
RJOA 070000Z 09010KT 060V130 9999 FEW020 BKN/// 05/M01 Q1026
TAF
RJOB 062305Z 0700/0806 05005KT 9999 FEW020
RJOT 062308Z 0700/0806 06008KT 9999 FEW030
RJOA 062305Z 0700/0806 12005KT 9999 FEW030
     BECMG 0712/0715 33005KT
     BECMG 0800/0803 12004KT

関西圏の緊急事態宣言が解除され、新型コロナ対策を強化しつつ訓練を再開し、1月10日以来、今年2回目の訓練日となりました。
一方、岡南飛行場周辺では河津桜が満開になり春の訪れを知らせてくれていました。
本日の天候は曇りでサーマルもさほどなく訓練再開日としては丁度いい感じでしたが、夕方、土手越えの風に変わり、みんな洗礼を受けていました。
訓練生は慣熟飛行にTGL、NAV訓練を、ライセンサーはNAVに出たり、慣熟飛行を行っていました。



解散    18:10

1番機  10:25離陸 撤収機  17:50着陸 

SF25C JA2330 ファルケ     11Flt.3h30min  
17E   JA2342 タイフーン    04Flt.2h10min  
合計                    15Flt.5h40min
02月28日
by OGC at 2021/2/28(日) 12:41:19 No.20210228123459 コメント】  削除 引用
1024 x 768 x 52,689バイト
No.1

02月28日
本日のリモート参加者
  会員      15名
  その他      0名


@本日の様子






METAR
RJBK 280000Z VRB01KT FEW030CU BKN/// 04/M02 Q1032 A3049
RJOB 280000Z 07006KT 9999 FEW030 BKN/// 06/M02 Q1031
RJOT 280000Z VRB02KT 9999 FEW030 BKN/// 05/02 Q1031
RJOA 280000Z 08008KT 9999 FEW025 BKN/// 05/M02 Q1030
TAF
RJOB 272307Z 2800/0106 12009KT 9999 FEW030
RJOT 272311Z 2800/0106 11006KT 9999 FEW025 SCT040
RJOA 272311Z 2800/0106 11008KT 9999 FEW025 SCT040

関西地区の緊急事態宣言も明日から解除されることから、3月7日から訓練を再開することになりました。
これを受けて、本日、機体の試運転、タクシーを行い来週の訓練再開に向け準備を行いました。
また、コロナ対策についても見直しを行い強化することとしました。

集合 10:00 解散    12:30

本日のフライトはありません。
02月21日
by OGC at 2021/2/21(日) 12:35:01 No.20210221123012 コメント】  削除 引用
1024 x 768 x 70,957バイト
No.1

02月21日
本日のリモート参加者
  会員      13名
  その他      0名


@本日の様子






METAR
RJBK 210000Z VRB01KT SKC 08/06 Q1016 A3002
RJOB 210000Z 24009KT CAVOK 12/08 Q1015
RJOT 210000Z 25017KT 9999 FEW030 16/03 Q1016
RJOA 210000Z 27005KT 230V310 CAVOK 13/06 Q1016
TAF
RJOB 202308Z 2100/2206 24010KT 9999 FEW030
RJOT 202309Z 2101/2206 26010KT 9999 FEW030
RJOA 202306Z 2100/2206 24006KT 9999 FEW030

本日、第5回リモートブリーフィングを開催しました。
次回、2月28日は関西圏の緊急事態宣言の解除が近いことから、岡山県在住の方による機体整備他、フライト準備を行います。
また、第6回リモートブリーフィングも10:00から開催予定です。

集合 10:00 解散    10:30

本日のフライトはありません。
02月14日
by OGC at 2021/2/14(日) 11:34:44 No.20210214111846 コメント】  削除 引用
960 x 720 x 33,327バイト
No.1

02月14日
本日のリモート参加者
  会員      10名
  その他      0名


@本日の様子






METAR
RJBK 140000Z 16003KT 15KM FEW025CU 09/08 Q1021 A3016
RJOB 140000Z 06006KT 9999 FEW020 SCT120 11/09 Q1020
RJOT 140000Z VRB02KT 9999 FEW020 SCT130 12/09 Q1020
RJOA 140000Z 12004KT 100V160 9999 FEW030 BKN050 11/08 Q1020
TAF
RJOB 132310Z 1400/1506 12006KT 9999 FEW020 BKN040
       TEMPO 1412/1415 4000 -RA BR BCFG FEW000 SCT005 BKN008
       TEMPO 1415/1500 3000 RA BR BCFG FEW000 BKN005 BKN008
       BECMG 1500/1503 29012KT
RJOT 132311Z 1400/1506 09005KT 9999 FEW025 SCT050
       TEMPO 1415/1421 4000 RA BR BCFG FEW000 SCT005 BKN008
       BECMG 1421/1500 27015KT
       TEMPO 1421/1500 2000 SHRA BR BCFG FEW000 SCT003 BKN005
       TEMPO 1503/1506 28020G30KT
RJOA 062306Z 132307Z 1400/1506 12007KT 9999 FEW025 SCT045
       TEMPO 1412/1421 3000 RA BR BCFG FEW000 SCT003 BKN005
       BECMG 1418/1421 30013KT
       TEMPO 1421/1500 4000 SHRA BR BCFG FEW000 SCT005 BKN008
       TEMPO 1503/1506 29017G27KT

本日、第4回リモートブリーフィングを開催し、航空安全講習会(web参加)の報告やXcsoarの利用の仕方について講義がありました。


集合 10:00 解散    11:10

本日のフライトはありません。
02月07日 
by OGC at 2021/2/7(日) 19:13:01 No.20210207185816 コメント】  削除 引用
1024 x 768 x 78,113バイト
No.1

02月07日
本日のリモート参加者
  会員      13名
  その他      0名


@本日の様子






METAR
RJBK 070000Z VRB01KT 10KM FEW025 06/04 Q1017 A3003
RJOB 070000Z 24006KT 9999 FEW020 08/04 Q1016
RJOT 070000Z 25006KT 9999 FEW025 SCT100 11/05 Q1016
RJOA 070000Z 29005KT 9999 FEW020 07/04 Q1016
TAF
RJOB 062310Z 0700/0806 27011KT 9999 FEW025 SCT045
     TEMPO 0803/0806 29016G27KT
RJOT 062309Z 0700/0806 27013KT 9999 FEW025 SCT045
     BECMG 0712/0715 15005KT
     BECMG 0718/0721 28018KT
     TEMPO 0800/0806 28020G30KT
RJOA 062306Z 0700/0806 28010KT 9999 FEW025 SCT035
     TEMPO 0800/0806 29018G28KT


本日、第3回リモートブリーフィングを開催し、google earth,Windyの上手な利用の仕方について講義がありました。


集合 10:00 解散    11:00

本日のフライトはありません。

 HDD「データ復元」ino    データ復旧、MAC、料金、ino

ホームページへ 全 51 件 [ 1 2 3 4 5 6 ]

モータースポーツ | 管理者へメール | お知らせ | 一括削除
携帯から使う方法 | ヘルプ | 利用規約 | 違反報告 | 管理パネル



- 無料レンタル掲示板 -